sensor_id;sensor_type;location;lat;lon;timestamp;P1;durP1;ratioP1;P2;durP2;ratioP2
16969;SDS011;8601;48.718;8.992;2022-08-21T00:00:25;4.13;;;2.07;;
16969;SDS011;8601;48.718;8.992;2022-08-21T00:02:54;3.10;;;2.20;;
16969;SDS011;8601;48.718;8.992;2022-08-21T00:05:24;2.93;;;1.87;;
16969;SDS011;8601;48.718;8.992;2022-08-21T00:07:53;4.23;;;1.80;;
16969;SDS011;8601;48.718;8.992;2022-08-21T00:10:21;2.90;;;2.10;;
16969;SDS011;8601;48.718;8.992;2022-08-21T00:12:49;2.90;;;1.97;;
16969;SDS011;8601;48.718;8.992;2022-08-21T00:15:17;3.00;;;2.00;;
16969;SDS011;8601;48.718;8.992;2022-08-21T00:17:47;2.83;;;2.07;;
16969;SDS011;8601;48.718;8.992;2022-08-21T00:20:15;5.77;;;2.27;;
16969;SDS011;8601;48.718;8.992;2022-08-21T00:22:43;3.30;;;2.33;;
16969;SDS011;8601;48.718;8.992;2022-08-21T00:25:12;2.77;;;2.13;;
16969;SDS011;8601;48.718;8.992;2022-08-21T00:27:40;3.07;;;2.10;;
16969;SDS011;8601;48.718;8.992;2022-08-21T00:30:09;4.90;;;2.30;;
16969;SDS011;8601;48.718;8.992;2022-08-21T00:32:38;5.57;;;2.37;;
16969;SDS011;8601;48.718;8.992;2022-08-21T00:35:07;3.50;;;2.20;;
16969;SDS011;8601;48.718;8.992;2022-08-21T00:37:36;3.57;;;2.17;;
16969;SDS011;8601;48.718;8.992;2022-08-21T00:40:04;3.23;;;2.33;;
16969;SDS011;8601;48.718;8.992;2022-08-21T00:42:34;3.70;;;2.23;;
16969;SDS011;8601;48.718;8.992;2022-08-21T00:45:02;2.47;;;1.97;;
16969;SDS011;8601;48.718;8.992;2022-08-21T00:47:30;4.07;;;2.70;;
16969;SDS011;8601;48.718;8.992;2022-08-21T00:49:58;4.27;;;2.63;;
16969;SDS011;8601;48.718;8.992;2022-08-21T00:52:27;2.53;;;1.97;;
16969;SDS011;8601;48.718;8.992;2022-08-21T00:54:56;3.20;;;2.03;;
16969;SDS011;8601;48.718;8.992;2022-08-21T00:57:26;4.07;;;2.57;;
16969;SDS011;8601;48.718;8.992;2022-08-21T00:59:57;6.10;;;2.60;;
16969;SDS011;8601;48.718;8.992;2022-08-21T01:02:26;5.37;;;2.70;;
16969;SDS011;8601;48.718;8.992;2022-08-21T01:04:53;3.83;;;2.50;;
16969;SDS011;8601;48.718;8.992;2022-08-21T01:07:21;4.17;;;2.60;;
16969;SDS011;8601;48.718;8.992;2022-08-21T01:09:47;4.40;;;2.23;;
16969;SDS011;8601;48.718;8.992;2022-08-21T01:12:15;2.87;;;2.30;;
16969;SDS011;8601;48.718;8.992;2022-08-21T01:14:42;4.20;;;2.37;;
16969;SDS011;8601;48.718;8.992;2022-08-21T01:17:12;3.70;;;2.27;;
16969;SDS011;8601;48.718;8.992;2022-08-21T01:19:41;4.23;;;2.30;;
16969;SDS011;8601;48.718;8.992;2022-08-21T01:22:10;4.33;;;2.50;;
16969;SDS011;8601;48.718;8.992;2022-08-21T01:24:38;4.83;;;2.03;;
16969;SDS011;8601;48.718;8.992;2022-08-21T01:27:06;3.53;;;2.23;;
16969;SDS011;8601;48.718;8.992;2022-08-21T01:29:34;3.83;;;2.20;;
16969;SDS011;8601;48.718;8.992;2022-08-21T01:32:05;2.30;;;2.10;;
16969;SDS011;8601;48.718;8.992;2022-08-21T01:34:35;3.70;;;2.37;;
16969;SDS011;8601;48.718;8.992;2022-08-21T01:37:05;3.37;;;2.10;;
16969;SDS011;8601;48.718;8.992;2022-08-21T01:39:33;5.07;;;2.90;;
16969;SDS011;8601;48.718;8.992;2022-08-21T01:42:00;3.30;;;2.30;;
16969;SDS011;8601;48.718;8.992;2022-08-21T01:44:27;2.70;;;2.50;;
16969;SDS011;8601;48.718;8.992;2022-08-21T01:46:55;3.93;;;2.40;;
16969;SDS011;8601;48.718;8.992;2022-08-21T01:49:24;3.47;;;2.47;;
16969;SDS011;8601;48.718;8.992;2022-08-21T01:51:51;2.77;;;2.30;;
16969;SDS011;8601;48.718;8.992;2022-08-21T01:54:18;3.37;;;2.47;;
16969;SDS011;8601;48.718;8.992;2022-08-21T01:56:47;3.80;;;2.63;;
16969;SDS011;8601;48.718;8.992;2022-08-21T01:59:17;5.67;;;2.73;;
16969;SDS011;8601;48.718;8.992;2022-08-21T02:01:44;3.77;;;2.30;;
16969;SDS011;8601;48.718;8.992;2022-08-21T02:04:11;3.70;;;2.60;;
16969;SDS011;8601;48.718;8.992;2022-08-21T02:06:39;4.20;;;2.50;;
16969;SDS011;8601;48.718;8.992;2022-08-21T02:09:07;4.00;;;2.67;;
16969;SDS011;8601;48.718;8.992;2022-08-21T02:11:36;2.73;;;2.30;;
16969;SDS011;8601;48.718;8.992;2022-08-21T02:14:06;4.30;;;2.43;;
16969;SDS011;8601;48.718;8.992;2022-08-21T02:16:33;4.10;;;2.60;;
16969;SDS011;8601;48.718;8.992;2022-08-21T02:19:01;3.20;;;2.37;;
16969;SDS011;8601;48.718;8.992;2022-08-21T02:21:28;2.67;;;2.47;;
16969;SDS011;8601;48.718;8.992;2022-08-21T02:23:55;4.40;;;2.67;;
16969;SDS011;8601;48.718;8.992;2022-08-21T02:26:22;2.93;;;2.40;;
16969;SDS011;8601;48.718;8.992;2022-08-21T02:28:49;3.73;;;2.43;;
16969;SDS011;8601;48.718;8.992;2022-08-21T02:31:18;3.97;;;2.50;;
16969;SDS011;8601;48.718;8.992;2022-08-21T02:33:46;5.57;;;2.83;;
16969;SDS011;8601;48.718;8.992;2022-08-21T02:36:14;4.33;;;2.40;;
16969;SDS011;8601;48.718;8.992;2022-08-21T02:38:41;3.83;;;2.80;;
16969;SDS011;8601;48.718;8.992;2022-08-21T02:41:09;3.50;;;2.33;;
16969;SDS011;8601;48.718;8.992;2022-08-21T02:43:39;4.60;;;2.60;;
16969;SDS011;8601;48.718;8.992;2022-08-21T02:46:08;3.97;;;2.50;;
16969;SDS011;8601;48.718;8.992;2022-08-21T02:48:38;3.60;;;2.37;;
16969;SDS011;8601;48.718;8.992;2022-08-21T02:51:06;4.50;;;2.70;;
16969;SDS011;8601;48.718;8.992;2022-08-21T02:53:36;3.83;;;2.30;;
16969;SDS011;8601;48.718;8.992;2022-08-21T02:56:04;3.83;;;2.83;;
16969;SDS011;8601;48.718;8.992;2022-08-21T02:58:34;4.00;;;2.50;;
16969;SDS011;8601;48.718;8.992;2022-08-21T03:01:05;5.37;;;2.97;;
16969;SDS011;8601;48.718;8.992;2022-08-21T03:03:34;3.77;;;2.80;;
16969;SDS011;8601;48.718;8.992;2022-08-21T03:06:05;2.60;;;2.40;;
16969;SDS011;8601;48.718;8.992;2022-08-21T03:08:33;3.90;;;2.73;;
16969;SDS011;8601;48.718;8.992;2022-08-21T03:11:00;4.20;;;2.63;;
16969;SDS011;8601;48.718;8.992;2022-08-21T03:13:27;4.10;;;2.60;;
16969;SDS011;8601;48.718;8.992;2022-08-21T03:15:54;3.10;;;2.80;;
16969;SDS011;8601;48.718;8.992;2022-08-21T03:18:22;4.87;;;2.73;;
16969;SDS011;8601;48.718;8.992;2022-08-21T03:20:49;4.70;;;2.87;;
16969;SDS011;8601;48.718;8.992;2022-08-21T03:23:17;4.03;;;2.37;;
16969;SDS011;8601;48.718;8.992;2022-08-21T03:25:45;3.70;;;2.50;;
16969;SDS011;8601;48.718;8.992;2022-08-21T03:28:14;3.93;;;2.60;;
16969;SDS011;8601;48.718;8.992;2022-08-21T03:30:42;3.30;;;2.60;;
16969;SDS011;8601;48.718;8.992;2022-08-21T03:33:11;4.63;;;2.90;;
16969;SDS011;8601;48.718;8.992;2022-08-21T03:35:39;3.40;;;2.97;;
16969;SDS011;8601;48.718;8.992;2022-08-21T03:38:06;5.23;;;3.13;;
16969;SDS011;8601;48.718;8.992;2022-08-21T03:40:35;3.47;;;3.17;;
16969;SDS011;8601;48.718;8.992;2022-08-21T03:43:02;4.23;;;3.17;;
16969;SDS011;8601;48.718;8.992;2022-08-21T03:45:29;5.20;;;3.30;;
16969;SDS011;8601;48.718;8.992;2022-08-21T03:47:57;4.57;;;2.60;;
16969;SDS011;8601;48.718;8.992;2022-08-21T03:50:27;3.43;;;2.43;;
16969;SDS011;8601;48.718;8.992;2022-08-21T03:52:56;5.33;;;2.80;;
16969;SDS011;8601;48.718;8.992;2022-08-21T03:55:24;4.90;;;3.00;;
16969;SDS011;8601;48.718;8.992;2022-08-21T03:57:53;3.70;;;2.87;;
16969;SDS011;8601;48.718;8.992;2022-08-21T04:00:21;3.93;;;2.90;;
16969;SDS011;8601;48.718;8.992;2022-08-21T04:02:49;4.63;;;2.90;;
16969;SDS011;8601;48.718;8.992;2022-08-21T04:05:16;9.73;;;3.13;;
16969;SDS011;8601;48.718;8.992;2022-08-21T04:07:52;3.57;;;3.13;;
16969;SDS011;8601;48.718;8.992;2022-08-21T04:10:20;3.70;;;2.77;;
16969;SDS011;8601;48.718;8.992;2022-08-21T04:12:48;5.30;;;2.80;;
16969;SDS011;8601;48.718;8.992;2022-08-21T04:15:17;5.50;;;2.53;;
16969;SDS011;8601;48.718;8.992;2022-08-21T04:17:45;4.10;;;2.57;;
16969;SDS011;8601;48.718;8.992;2022-08-21T04:20:11;4.00;;;2.60;;
16969;SDS011;8601;48.718;8.992;2022-08-21T04:22:38;4.00;;;2.60;;
16969;SDS011;8601;48.718;8.992;2022-08-21T04:25:05;5.67;;;2.90;;
16969;SDS011;8601;48.718;8.992;2022-08-21T04:27:33;3.50;;;2.97;;
16969;SDS011;8601;48.718;8.992;2022-08-21T04:30:00;4.67;;;3.20;;
16969;SDS011;8601;48.718;8.992;2022-08-21T04:32:29;4.27;;;3.00;;
16969;SDS011;8601;48.718;8.992;2022-08-21T04:34:59;3.97;;;2.67;;
16969;SDS011;8601;48.718;8.992;2022-08-21T04:37:26;3.80;;;2.57;;
16969;SDS011;8601;48.718;8.992;2022-08-21T04:39:53;3.80;;;2.57;;
16969;SDS011;8601;48.718;8.992;2022-08-21T04:42:22;4.70;;;2.70;;
16969;SDS011;8601;48.718;8.992;2022-08-21T04:44:50;4.30;;;2.97;;
16969;SDS011;8601;48.718;8.992;2022-08-21T04:47:17;3.37;;;2.43;;
16969;SDS011;8601;48.718;8.992;2022-08-21T04:49:46;4.07;;;2.80;;
16969;SDS011;8601;48.718;8.992;2022-08-21T04:52:13;3.30;;;2.70;;
16969;SDS011;8601;48.718;8.992;2022-08-21T04:54:42;4.27;;;2.67;;
16969;SDS011;8601;48.718;8.992;2022-08-21T04:57:11;3.70;;;2.60;;
16969;SDS011;8601;48.718;8.992;2022-08-21T04:59:42;4.37;;;2.77;;
16969;SDS011;8601;48.718;8.992;2022-08-21T05:02:15;4.03;;;2.70;;
16969;SDS011;8601;48.718;8.992;2022-08-21T05:04:43;3.80;;;2.97;;
16969;SDS011;8601;48.718;8.992;2022-08-21T05:07:15;5.20;;;2.60;;
16969;SDS011;8601;48.718;8.992;2022-08-21T05:09:43;3.90;;;2.67;;
16969;SDS011;8601;48.718;8.992;2022-08-21T05:12:11;4.90;;;3.30;;
16969;SDS011;8601;48.718;8.992;2022-08-21T05:14:39;3.63;;;2.60;;
16969;SDS011;8601;48.718;8.992;2022-08-21T05:17:07;4.00;;;2.83;;
16969;SDS011;8601;48.718;8.992;2022-08-21T05:19:34;3.83;;;2.80;;
16969;SDS011;8601;48.718;8.992;2022-08-21T05:22:03;5.67;;;3.30;;
16969;SDS011;8601;48.718;8.992;2022-08-21T05:24:31;4.50;;;2.93;;
16969;SDS011;8601;48.718;8.992;2022-08-21T05:26:59;3.33;;;2.93;;
16969;SDS011;8601;48.718;8.992;2022-08-21T05:29:26;5.27;;;3.13;;
16969;SDS011;8601;48.718;8.992;2022-08-21T05:31:55;3.87;;;3.07;;
16969;SDS011;8601;48.718;8.992;2022-08-21T05:34:22;3.20;;;2.90;;
16969;SDS011;8601;48.718;8.992;2022-08-21T05:36:50;3.70;;;2.90;;
16969;SDS011;8601;48.718;8.992;2022-08-21T05:39:19;3.37;;;2.90;;
16969;SDS011;8601;48.718;8.992;2022-08-21T05:41:46;4.87;;;2.93;;
16969;SDS011;8601;48.718;8.992;2022-08-21T05:44:14;5.13;;;2.97;;
16969;SDS011;8601;48.718;8.992;2022-08-21T05:46:41;3.47;;;2.70;;
16969;SDS011;8601;48.718;8.992;2022-08-21T05:49:08;4.67;;;3.20;;
16969;SDS011;8601;48.718;8.992;2022-08-21T05:51:34;4.30;;;3.10;;
16969;SDS011;8601;48.718;8.992;2022-08-21T05:54:02;4.07;;;3.27;;
16969;SDS011;8601;48.718;8.992;2022-08-21T05:56:30;4.83;;;3.27;;
16969;SDS011;8601;48.718;8.992;2022-08-21T05:58:57;4.30;;;3.50;;
16969;SDS011;8601;48.718;8.992;2022-08-21T06:01:24;3.53;;;2.90;;
16969;SDS011;8601;48.718;8.992;2022-08-21T06:03:51;3.37;;;2.87;;
16969;SDS011;8601;48.718;8.992;2022-08-21T06:06:18;3.93;;;3.47;;
16969;SDS011;8601;48.718;8.992;2022-08-21T06:08:45;3.40;;;3.10;;
16969;SDS011;8601;48.718;8.992;2022-08-21T06:11:12;4.83;;;3.20;;
16969;SDS011;8601;48.718;8.992;2022-08-21T06:13:40;5.60;;;3.10;;
16969;SDS011;8601;48.718;8.992;2022-08-21T06:16:08;3.63;;;3.20;;
16969;SDS011;8601;48.718;8.992;2022-08-21T06:18:37;5.50;;;2.70;;
16969;SDS011;8601;48.718;8.992;2022-08-21T06:21:04;4.50;;;2.73;;
16969;SDS011;8601;48.718;8.992;2022-08-21T06:23:32;3.47;;;2.80;;
16969;SDS011;8601;48.718;8.992;2022-08-21T06:26:00;3.77;;;2.87;;
16969;SDS011;8601;48.718;8.992;2022-08-21T06:28:28;3.53;;;3.20;;
16969;SDS011;8601;48.718;8.992;2022-08-21T06:30:57;5.43;;;3.30;;
16969;SDS011;8601;48.718;8.992;2022-08-21T06:33:23;5.60;;;3.10;;
16969;SDS011;8601;48.718;8.992;2022-08-21T06:35:50;3.67;;;3.07;;
16969;SDS011;8601;48.718;8.992;2022-08-21T06:38:18;3.13;;;2.70;;
16969;SDS011;8601;48.718;8.992;2022-08-21T06:40:45;3.73;;;3.30;;
16969;SDS011;8601;48.718;8.992;2022-08-21T06:43:12;5.37;;;2.97;;
16969;SDS011;8601;48.718;8.992;2022-08-21T06:45:42;6.00;;;3.10;;
16969;SDS011;8601;48.718;8.992;2022-08-21T06:48:10;4.70;;;2.93;;
16969;SDS011;8601;48.718;8.992;2022-08-21T06:50:37;5.20;;;3.03;;
16969;SDS011;8601;48.718;8.992;2022-08-21T06:53:05;3.77;;;2.87;;
16969;SDS011;8601;48.718;8.992;2022-08-21T06:55:34;3.80;;;3.23;;
16969;SDS011;8601;48.718;8.992;2022-08-21T06:58:02;5.43;;;3.20;;
16969;SDS011;8601;48.718;8.992;2022-08-21T07:00:29;3.50;;;2.93;;
16969;SDS011;8601;48.718;8.992;2022-08-21T07:02:57;6.10;;;2.90;;
16969;SDS011;8601;48.718;8.992;2022-08-21T07:05:26;4.83;;;2.93;;
16969;SDS011;8601;48.718;8.992;2022-08-21T07:07:53;4.50;;;3.20;;
16969;SDS011;8601;48.718;8.992;2022-08-21T07:10:21;5.00;;;3.10;;
16969;SDS011;8601;48.718;8.992;2022-08-21T07:12:48;4.10;;;2.77;;
16969;SDS011;8601;48.718;8.992;2022-08-21T07:15:16;4.17;;;3.00;;
16969;SDS011;8601;48.718;8.992;2022-08-21T07:17:43;6.47;;;3.40;;
16969;SDS011;8601;48.718;8.992;2022-08-21T07:20:10;8.17;;;3.10;;
16969;SDS011;8601;48.718;8.992;2022-08-21T07:22:39;5.27;;;3.17;;
16969;SDS011;8601;48.718;8.992;2022-08-21T07:25:07;5.10;;;3.20;;
16969;SDS011;8601;48.718;8.992;2022-08-21T07:27:34;5.73;;;3.50;;
16969;SDS011;8601;48.718;8.992;2022-08-21T07:30:02;5.73;;;3.10;;
16969;SDS011;8601;48.718;8.992;2022-08-21T07:32:29;6.63;;;3.40;;
16969;SDS011;8601;48.718;8.992;2022-08-21T07:34:56;6.47;;;3.27;;
16969;SDS011;8601;48.718;8.992;2022-08-21T07:37:23;5.43;;;3.30;;
16969;SDS011;8601;48.718;8.992;2022-08-21T07:39:52;7.30;;;3.23;;
16969;SDS011;8601;48.718;8.992;2022-08-21T07:42:19;4.23;;;3.27;;
16969;SDS011;8601;48.718;8.992;2022-08-21T07:44:45;7.27;;;3.90;;
16969;SDS011;8601;48.718;8.992;2022-08-21T07:47:12;9.00;;;4.00;;
16969;SDS011;8601;48.718;8.992;2022-08-21T07:49:39;5.37;;;3.60;;
16969;SDS011;8601;48.718;8.992;2022-08-21T07:52:06;5.80;;;3.93;;
16969;SDS011;8601;48.718;8.992;2022-08-21T07:54:33;6.23;;;3.57;;
16969;SDS011;8601;48.718;8.992;2022-08-21T07:57:01;5.13;;;3.50;;
16969;SDS011;8601;48.718;8.992;2022-08-21T07:59:29;6.23;;;3.60;;
16969;SDS011;8601;48.718;8.992;2022-08-21T08:01:56;5.57;;;3.13;;
16969;SDS011;8601;48.718;8.992;2022-08-21T08:04:23;5.60;;;2.97;;
16969;SDS011;8601;48.718;8.992;2022-08-21T08:06:50;6.40;;;2.97;;
16969;SDS011;8601;48.718;8.992;2022-08-21T08:09:17;5.30;;;3.20;;
16969;SDS011;8601;48.718;8.992;2022-08-21T08:11:44;5.60;;;3.30;;
16969;SDS011;8601;48.718;8.992;2022-08-21T08:14:13;5.30;;;2.97;;
16969;SDS011;8601;48.718;8.992;2022-08-21T08:16:40;5.33;;;3.00;;
16969;SDS011;8601;48.718;8.992;2022-08-21T08:19:07;5.63;;;3.23;;
16969;SDS011;8601;48.718;8.992;2022-08-21T08:21:34;5.60;;;3.23;;
16969;SDS011;8601;48.718;8.992;2022-08-21T08:24:02;3.73;;;2.73;;
16969;SDS011;8601;48.718;8.992;2022-08-21T08:26:31;6.23;;;3.07;;
16969;SDS011;8601;48.718;8.992;2022-08-21T08:28:58;4.50;;;3.07;;
16969;SDS011;8601;48.718;8.992;2022-08-21T08:31:27;4.27;;;2.57;;
16969;SDS011;8601;48.718;8.992;2022-08-21T08:33:53;5.13;;;3.30;;
16969;SDS011;8601;48.718;8.992;2022-08-21T08:36:21;5.40;;;3.20;;
16969;SDS011;8601;48.718;8.992;2022-08-21T08:38:59;6.47;;;3.03;;
16969;SDS011;8601;48.718;8.992;2022-08-21T08:41:26;4.53;;;2.97;;
16969;SDS011;8601;48.718;8.992;2022-08-21T08:43:57;6.90;;;2.80;;
16969;SDS011;8601;48.718;8.992;2022-08-21T08:46:30;6.27;;;2.90;;
16969;SDS011;8601;48.718;8.992;2022-08-21T08:49:03;5.60;;;3.27;;
16969;SDS011;8601;48.718;8.992;2022-08-21T08:51:37;9.53;;;3.53;;
16969;SDS011;8601;48.718;8.992;2022-08-21T08:54:09;8.13;;;3.40;;
16969;SDS011;8601;48.718;8.992;2022-08-21T08:56:39;5.93;;;3.20;;
16969;SDS011;8601;48.718;8.992;2022-08-21T08:59:07;6.43;;;3.50;;
16969;SDS011;8601;48.718;8.992;2022-08-21T09:01:41;4.63;;;2.93;;
16969;SDS011;8601;48.718;8.992;2022-08-21T09:04:09;6.07;;;3.27;;
16969;SDS011;8601;48.718;8.992;2022-08-21T09:06:43;6.07;;;2.83;;
16969;SDS011;8601;48.718;8.992;2022-08-21T09:09:22;7.47;;;3.27;;
16969;SDS011;8601;48.718;8.992;2022-08-21T09:12:00;6.83;;;3.03;;
16969;SDS011;8601;48.718;8.992;2022-08-21T09:14:33;4.83;;;3.10;;
16969;SDS011;8601;48.718;8.992;2022-08-21T09:17:16;5.97;;;2.90;;
16969;SDS011;8601;48.718;8.992;2022-08-21T09:19:53;7.27;;;2.93;;
16969;SDS011;8601;48.718;8.992;2022-08-21T09:22:32;6.43;;;2.90;;
16969;SDS011;8601;48.718;8.992;2022-08-21T09:25:08;6.43;;;2.83;;
16969;SDS011;8601;48.718;8.992;2022-08-21T09:27:41;5.57;;;2.87;;
16969;SDS011;8601;48.718;8.992;2022-08-21T09:30:08;4.97;;;2.67;;
16969;SDS011;8601;48.718;8.992;2022-08-21T09:32:38;6.27;;;3.13;;
16969;SDS011;8601;48.718;8.992;2022-08-21T09:35:07;4.47;;;2.70;;
16969;SDS011;8601;48.718;8.992;2022-08-21T09:37:45;4.77;;;2.70;;
16969;SDS011;8601;48.718;8.992;2022-08-21T09:40:19;4.63;;;2.37;;
16969;SDS011;8601;48.718;8.992;2022-08-21T09:42:56;4.73;;;2.87;;
16969;SDS011;8601;48.718;8.992;2022-08-21T09:45:24;4.10;;;2.50;;
16969;SDS011;8601;48.718;8.992;2022-08-21T09:47:53;4.93;;;2.93;;
16969;SDS011;8601;48.718;8.992;2022-08-21T09:50:21;4.83;;;2.67;;
16969;SDS011;8601;48.718;8.992;2022-08-21T09:52:50;3.40;;;2.23;;
16969;SDS011;8601;48.718;8.992;2022-08-21T09:55:21;5.70;;;2.67;;
16969;SDS011;8601;48.718;8.992;2022-08-21T09:58:11;4.90;;;2.63;;
16969;SDS011;8601;48.718;8.992;2022-08-21T10:00:39;4.50;;;2.45;;
16969;SDS011;8601;48.718;8.992;2022-08-21T10:03:12;5.20;;;2.70;;
16969;SDS011;8601;48.718;8.992;2022-08-21T10:05:51;5.67;;;2.83;;
16969;SDS011;8601;48.718;8.992;2022-08-21T10:08:21;5.43;;;2.38;;
16969;SDS011;8601;48.718;8.992;2022-08-21T10:10:50;3.22;;;2.22;;
16969;SDS011;8601;48.718;8.992;2022-08-21T10:13:22;4.03;;;2.50;;
16969;SDS011;8601;48.718;8.992;2022-08-21T10:16:00;6.03;;;2.70;;
16969;SDS011;8601;48.718;8.992;2022-08-21T10:18:40;4.25;;;2.30;;
16969;SDS011;8601;48.718;8.992;2022-08-21T10:21:10;7.22;;;2.65;;
16969;SDS011;8601;48.718;8.992;2022-08-21T10:23:46;5.75;;;3.10;;
16969;SDS011;8601;48.718;8.992;2022-08-21T10:26:27;5.28;;;2.40;;
16969;SDS011;8601;48.718;8.992;2022-08-21T10:29:03;4.20;;;2.70;;
16969;SDS011;8601;48.718;8.992;2022-08-21T10:31:41;5.88;;;2.78;;
16969;SDS011;8601;48.718;8.992;2022-08-21T10:34:23;5.80;;;2.50;;
16969;SDS011;8601;48.718;8.992;2022-08-21T10:37:01;4.60;;;2.45;;
16969;SDS011;8601;48.718;8.992;2022-08-21T10:39:40;4.85;;;2.60;;
16969;SDS011;8601;48.718;8.992;2022-08-21T10:45:08;4.72;;;2.42;;
16969;SDS011;8601;48.718;8.992;2022-08-21T10:47:41;2.75;;;2.20;;
16969;SDS011;8601;48.718;8.992;2022-08-21T10:50:18;4.45;;;2.40;;
16969;SDS011;8601;48.718;8.992;2022-08-21T10:52:57;3.70;;;2.40;;
16969;SDS011;8601;48.718;8.992;2022-08-21T10:55:41;3.88;;;2.58;;
16969;SDS011;8601;48.718;8.992;2022-08-21T10:58:22;5.82;;;2.45;;
16969;SDS011;8601;48.718;8.992;2022-08-21T11:00:55;4.75;;;2.40;;
16969;SDS011;8601;48.718;8.992;2022-08-21T11:03:28;4.40;;;2.70;;
16969;SDS011;8601;48.718;8.992;2022-08-21T11:06:02;5.07;;;2.50;;
16969;SDS011;8601;48.718;8.992;2022-08-21T11:08:35;4.47;;;3.05;;
16969;SDS011;8601;48.718;8.992;2022-08-21T11:11:06;4.22;;;2.50;;
16969;SDS011;8601;48.718;8.992;2022-08-21T11:13:38;5.75;;;3.28;;
16969;SDS011;8601;48.718;8.992;2022-08-21T11:16:10;5.47;;;2.38;;
16969;SDS011;8601;48.718;8.992;2022-08-21T11:18:44;3.63;;;2.50;;
16969;SDS011;8601;48.718;8.992;2022-08-21T11:21:27;4.53;;;2.28;;
16969;SDS011;8601;48.718;8.992;2022-08-21T11:23:59;4.68;;;2.60;;
16969;SDS011;8601;48.718;8.992;2022-08-21T11:26:34;3.90;;;2.55;;
16969;SDS011;8601;48.718;8.992;2022-08-21T11:29:06;4.22;;;2.72;;
16969;SDS011;8601;48.718;8.992;2022-08-21T11:31:41;4.20;;;2.70;;
16969;SDS011;8601;48.718;8.992;2022-08-21T11:34:28;4.13;;;2.92;;
16969;SDS011;8601;48.718;8.992;2022-08-21T11:37:13;3.88;;;2.58;;
16969;SDS011;8601;48.718;8.992;2022-08-21T11:39:50;4.80;;;2.60;;
16969;SDS011;8601;48.718;8.992;2022-08-21T11:42:24;4.85;;;2.85;;
16969;SDS011;8601;48.718;8.992;2022-08-21T11:45:02;2.60;;;2.22;;
16969;SDS011;8601;48.718;8.992;2022-08-21T11:47:45;3.03;;;2.38;;
16969;SDS011;8601;48.718;8.992;2022-08-21T11:50:20;3.65;;;2.55;;
16969;SDS011;8601;48.718;8.992;2022-08-21T11:52:54;4.93;;;2.75;;
16969;SDS011;8601;48.718;8.992;2022-08-21T11:55:26;3.63;;;2.72;;
16969;SDS011;8601;48.718;8.992;2022-08-21T11:57:58;6.03;;;2.70;;
16969;SDS011;8601;48.718;8.992;2022-08-21T12:00:29;4.43;;;2.63;;
16969;SDS011;8601;48.718;8.992;2022-08-21T12:03:05;4.50;;;2.72;;
16969;SDS011;8601;48.718;8.992;2022-08-21T12:05:36;5.20;;;2.45;;
16969;SDS011;8601;48.718;8.992;2022-08-21T12:08:10;6.20;;;2.70;;
16969;SDS011;8601;48.718;8.992;2022-08-21T12:10:40;3.85;;;2.70;;
16969;SDS011;8601;48.718;8.992;2022-08-21T12:13:28;4.55;;;2.50;;
16969;SDS011;8601;48.718;8.992;2022-08-21T12:16:04;4.90;;;2.88;;
16969;SDS011;8601;48.718;8.992;2022-08-21T12:18:32;3.38;;;2.47;;
16969;SDS011;8601;48.718;8.992;2022-08-21T12:21:00;3.50;;;2.20;;
16969;SDS011;8601;48.718;8.992;2022-08-21T12:23:33;3.75;;;2.25;;
16969;SDS011;8601;48.718;8.992;2022-08-21T12:29:11;3.42;;;2.70;;
16969;SDS011;8601;48.718;8.992;2022-08-21T12:31:47;5.18;;;2.20;;
16969;SDS011;8601;48.718;8.992;2022-08-21T12:34:16;5.28;;;2.47;;
16969;SDS011;8601;48.718;8.992;2022-08-21T12:36:45;4.20;;;2.30;;
16969;SDS011;8601;48.718;8.992;2022-08-21T12:39:17;5.15;;;2.90;;
16969;SDS011;8601;48.718;8.992;2022-08-21T12:41:51;4.55;;;2.30;;
16969;SDS011;8601;48.718;8.992;2022-08-21T12:44:22;4.22;;;2.67;;
16969;SDS011;8601;48.718;8.992;2022-08-21T12:46:58;4.25;;;2.80;;
16969;SDS011;8601;48.718;8.992;2022-08-21T12:49:30;5.60;;;2.75;;
16969;SDS011;8601;48.718;8.992;2022-08-21T12:52:02;4.20;;;2.78;;
16969;SDS011;8601;48.718;8.992;2022-08-21T12:54:39;6.13;;;2.90;;
16969;SDS011;8601;48.718;8.992;2022-08-21T12:57:16;6.07;;;2.72;;
16969;SDS011;8601;48.718;8.992;2022-08-21T12:59:45;7.93;;;3.00;;
16969;SDS011;8601;48.718;8.992;2022-08-21T13:02:18;4.03;;;2.50;;
16969;SDS011;8601;48.718;8.992;2022-08-21T13:04:47;4.18;;;2.60;;
16969;SDS011;8601;48.718;8.992;2022-08-21T13:07:16;3.45;;;2.70;;
16969;SDS011;8601;48.718;8.992;2022-08-21T13:09:52;4.70;;;2.38;;
16969;SDS011;8601;48.718;8.992;2022-08-21T13:12:21;4.05;;;2.35;;
16969;SDS011;8601;48.718;8.992;2022-08-21T13:14:48;4.75;;;2.65;;
16969;SDS011;8601;48.718;8.992;2022-08-21T13:17:18;3.85;;;2.28;;
16969;SDS011;8601;48.718;8.992;2022-08-21T13:19:52;3.83;;;2.40;;
16969;SDS011;8601;48.718;8.992;2022-08-21T13:22:24;7.00;;;3.13;;
16969;SDS011;8601;48.718;8.992;2022-08-21T13:24:53;4.90;;;2.97;;
16969;SDS011;8601;48.718;8.992;2022-08-21T13:27:24;3.47;;;2.50;;
16969;SDS011;8601;48.718;8.992;2022-08-21T13:30:07;3.92;;;2.50;;
16969;SDS011;8601;48.718;8.992;2022-08-21T13:32:40;3.97;;;2.80;;
16969;SDS011;8601;48.718;8.992;2022-08-21T13:35:13;5.05;;;2.90;;
16969;SDS011;8601;48.718;8.992;2022-08-21T13:37:42;4.72;;;2.78;;
16969;SDS011;8601;48.718;8.992;2022-08-21T13:40:12;4.75;;;2.80;;
16969;SDS011;8601;48.718;8.992;2022-08-21T13:42:43;3.88;;;2.70;;
16969;SDS011;8601;48.718;8.992;2022-08-21T13:45:15;3.13;;;2.45;;
16969;SDS011;8601;48.718;8.992;2022-08-21T13:47:43;7.30;;;2.80;;
16969;SDS011;8601;48.718;8.992;2022-08-21T13:50:13;5.80;;;2.97;;
16969;SDS011;8601;48.718;8.992;2022-08-21T13:52:53;5.35;;;2.53;;
16969;SDS011;8601;48.718;8.992;2022-08-21T13:55:24;4.25;;;2.60;;
16969;SDS011;8601;48.718;8.992;2022-08-21T13:58:01;5.50;;;2.80;;
16969;SDS011;8601;48.718;8.992;2022-08-21T14:00:31;5.40;;;2.60;;
16969;SDS011;8601;48.718;8.992;2022-08-21T14:03:01;5.28;;;2.80;;
16969;SDS011;8601;48.718;8.992;2022-08-21T14:05:31;3.20;;;2.55;;
16969;SDS011;8601;48.718;8.992;2022-08-21T14:08:02;5.25;;;2.67;;
16969;SDS011;8601;48.718;8.992;2022-08-21T14:10:35;5.72;;;2.90;;
16969;SDS011;8601;48.718;8.992;2022-08-21T14:13:04;4.53;;;2.70;;
16969;SDS011;8601;48.718;8.992;2022-08-21T14:15:33;3.80;;;2.67;;
16969;SDS011;8601;48.718;8.992;2022-08-21T14:18:07;4.80;;;2.88;;
16969;SDS011;8601;48.718;8.992;2022-08-21T14:20:39;4.63;;;2.55;;
16969;SDS011;8601;48.718;8.992;2022-08-21T14:23:06;3.53;;;2.40;;
16969;SDS011;8601;48.718;8.992;2022-08-21T14:25:38;3.50;;;2.75;;
16969;SDS011;8601;48.718;8.992;2022-08-21T14:28:10;3.65;;;2.53;;
16969;SDS011;8601;48.718;8.992;2022-08-21T14:30:44;4.80;;;3.05;;
16969;SDS011;8601;48.718;8.992;2022-08-21T14:33:13;4.45;;;2.70;;
16969;SDS011;8601;48.718;8.992;2022-08-21T14:35:46;4.10;;;2.70;;
16969;SDS011;8601;48.718;8.992;2022-08-21T14:38:13;6.55;;;2.80;;
16969;SDS011;8601;48.718;8.992;2022-08-21T14:40:43;4.53;;;3.03;;
16969;SDS011;8601;48.718;8.992;2022-08-21T14:43:13;4.13;;;2.90;;
16969;SDS011;8601;48.718;8.992;2022-08-21T14:45:40;4.82;;;2.70;;
16969;SDS011;8601;48.718;8.992;2022-08-21T14:48:08;5.72;;;3.03;;
16969;SDS011;8601;48.718;8.992;2022-08-21T14:50:35;3.25;;;2.58;;
16969;SDS011;8601;48.718;8.992;2022-08-21T14:53:03;5.88;;;2.85;;
16969;SDS011;8601;48.718;8.992;2022-08-21T14:55:30;4.40;;;2.65;;
16969;SDS011;8601;48.718;8.992;2022-08-21T14:58:21;3.53;;;2.35;;
16969;SDS011;8601;48.718;8.992;2022-08-21T15:00:49;5.03;;;2.60;;
16969;SDS011;8601;48.718;8.992;2022-08-21T15:03:17;6.03;;;2.50;;
16969;SDS011;8601;48.718;8.992;2022-08-21T15:05:46;6.13;;;2.50;;
16969;SDS011;8601;48.718;8.992;2022-08-21T15:08:13;6.22;;;2.67;;
16969;SDS011;8601;48.718;8.992;2022-08-21T15:10:40;6.40;;;3.22;;
16969;SDS011;8601;48.718;8.992;2022-08-21T15:13:07;4.10;;;2.65;;
16969;SDS011;8601;48.718;8.992;2022-08-21T15:15:38;5.20;;;2.78;;
16969;SDS011;8601;48.718;8.992;2022-08-21T15:18:07;5.65;;;2.78;;
16969;SDS011;8601;48.718;8.992;2022-08-21T15:20:34;4.40;;;2.70;;
16969;SDS011;8601;48.718;8.992;2022-08-21T15:23:02;4.10;;;2.88;;